Kamloops Airport
CYKA : now visible

Airfield :











YOU CAN JOIN US ON...

 
LOGIN :

Register | Disclaimer

   EN    FR    IT 

 









Legend :    VFR   Marginal VFR   IFR   Intensive IFR   Very Intensive IFR
Visi :
Ceiling :
>= 8 km
>= 3000ft
5 to 8 km
1000 to 3000 ft
1500m to 5 km
500 to 1000 ft
800 to 1500m
200 to 500 ft
< 800m
< 200 ft
Symbols :   Thunderstorms  Fog  Heavy snow  Heavy precipitations  Wind > 20 kt







- Airport Elevation : 1133 ft
- IATA code : YKA


CYKA - Kamloops

CURRENT METAR :
  • 151141Z 12011G19KT 40SM -SHRA SCT070 BKN100 OVC160 15/12 A2966 RMK AC4AC2AC2 CVCTV CLD EMB SLP046 DENSITY ALT 1800FT

EXPIRED METARs :
  • 151100Z 09012KT 40SM FEW060 BKN100 BKN140 16/12 A2965 RMK SC2AC3AC2 SLP041 DENSITY ALT 1800FT
  • 151000Z 10012KT 40SM FEW063 BKN100 BKN140 16/11 A2966 RMK SC2AC3AC2 SLP045 DENSITY ALT 1900FT
  • 150900Z 12009KT 40SM SCT063 BKN120 BKN140 18/08 A2968 RMK SC3AC2AC2 SLP050 DENSITY ALT 2100FT

TAF TAF CYKA
Valid from the 15 at 07:00 until the 15 at 19:00 UTC


150638Z 1507/1519 10008KT P6SM BKN060
TEMPO 1507/1519 P6SM -SHRA OVC060 RMK NXT FCST BY 151300Z
No reported NOTAMs for that airfield.



MET'MAP, your aeronautical weather chart ! - Copyright ORBIFLY December 2007 - Disclaimer

ORBIFLY MET'MAP TEAM :

Programming & Development : Alexandra Zaïnal
Concept & Development : Baudouin d'Aumeries
Co-Development & Prog : Marc-Olivier Méhu
Technical & hardware support : Manuel Goepfert

Contact : metmap@orbifly.com




SOURCES & CREDITS :

   NOAA       Earth
Advisory